sensor_id;sensor_type;location;lat;lon;timestamp;P1;durP1;ratioP1;P2;durP2;ratioP2
33786;SDS011;29742;51.540;9.358;2022-07-29T00:04:35;2.33;;;1.15;;
33786;SDS011;29742;51.540;9.358;2022-07-29T00:09:36;1.60;;;0.98;;
33786;SDS011;29742;51.540;9.358;2022-07-29T00:14:37;3.20;;;1.10;;
33786;SDS011;29742;51.540;9.358;2022-07-29T00:19:38;2.15;;;0.88;;
33786;SDS011;29742;51.540;9.358;2022-07-29T00:24:39;1.40;;;1.20;;
33786;SDS011;29742;51.540;9.358;2022-07-29T00:29:40;2.58;;;1.02;;
33786;SDS011;29742;51.540;9.358;2022-07-29T00:34:41;2.10;;;0.88;;
33786;SDS011;29742;51.540;9.358;2022-07-29T00:40:01;2.88;;;0.90;;
33786;SDS011;29742;51.540;9.358;2022-07-29T00:45:02;1.08;;;0.90;;
33786;SDS011;29742;51.540;9.358;2022-07-29T00:50:04;2.72;;;0.95;;
33786;SDS011;29742;51.540;9.358;2022-07-29T00:55:06;2.47;;;1.02;;
33786;SDS011;29742;51.540;9.358;2022-07-29T01:00:09;1.58;;;0.75;;
33786;SDS011;29742;51.540;9.358;2022-07-29T01:05:11;5.03;;;1.40;;
33786;SDS011;29742;51.540;9.358;2022-07-29T01:10:13;1.73;;;0.80;;
33786;SDS011;29742;51.540;9.358;2022-07-29T01:15:15;2.67;;;0.80;;
33786;SDS011;29742;51.540;9.358;2022-07-29T01:20:31;3.15;;;1.48;;
33786;SDS011;29742;51.540;9.358;2022-07-29T01:30:42;1.20;;;0.80;;
33786;SDS011;29742;51.540;9.358;2022-07-29T01:35:45;2.80;;;1.17;;
33786;SDS011;29742;51.540;9.358;2022-07-29T01:40:48;1.95;;;1.13;;
33786;SDS011;29742;51.540;9.358;2022-07-29T01:45:51;2.57;;;0.73;;
33786;SDS011;29742;51.540;9.358;2022-07-29T01:50:55;3.67;;;1.20;;
33786;SDS011;29742;51.540;9.358;2022-07-29T01:55:57;4.15;;;1.00;;
33786;SDS011;29742;51.540;9.358;2022-07-29T02:01:00;2.95;;;1.15;;
33786;SDS011;29742;51.540;9.358;2022-07-29T02:06:02;1.38;;;0.85;;
33786;SDS011;29742;51.540;9.358;2022-07-29T02:11:04;1.92;;;0.90;;
33786;SDS011;29742;51.540;9.358;2022-07-29T02:16:06;1.02;;;0.75;;
33786;SDS011;29742;51.540;9.358;2022-07-29T02:21:07;2.15;;;0.80;;
33786;SDS011;29742;51.540;9.358;2022-07-29T02:26:09;1.33;;;1.08;;
33786;SDS011;29742;51.540;9.358;2022-07-29T02:31:10;1.10;;;1.00;;
33786;SDS011;29742;51.540;9.358;2022-07-29T02:36:11;1.27;;;0.80;;
33786;SDS011;29742;51.540;9.358;2022-07-29T02:41:33;1.13;;;0.80;;
33786;SDS011;29742;51.540;9.358;2022-07-29T02:46:37;1.40;;;0.88;;
33786;SDS011;29742;51.540;9.358;2022-07-29T02:51:42;1.52;;;0.80;;
33786;SDS011;29742;51.540;9.358;2022-07-29T02:56:44;3.28;;;1.20;;
33786;SDS011;29742;51.540;9.358;2022-07-29T03:01:46;1.40;;;0.77;;
33786;SDS011;29742;51.540;9.358;2022-07-29T03:06:47;1.52;;;0.80;;
33786;SDS011;29742;51.540;9.358;2022-07-29T03:11:49;3.80;;;1.42;;
33786;SDS011;29742;51.540;9.358;2022-07-29T03:16:50;3.17;;;0.90;;
33786;SDS011;29742;51.540;9.358;2022-07-29T03:21:51;0.98;;;0.60;;
33786;SDS011;29742;51.540;9.358;2022-07-29T03:26:54;21.30;;;2.40;;
33786;SDS011;29742;51.540;9.358;2022-07-29T03:31:55;42.60;;;6.93;;
33786;SDS011;29742;51.540;9.358;2022-07-29T03:36:56;38.65;;;7.35;;
33786;SDS011;29742;51.540;9.358;2022-07-29T03:41:57;18.40;;;4.35;;
33786;SDS011;29742;51.540;9.358;2022-07-29T03:47:00;20.92;;;5.88;;
33786;SDS011;29742;51.540;9.358;2022-07-29T03:52:02;42.65;;;9.25;;
33786;SDS011;29742;51.540;9.358;2022-07-29T03:57:03;18.95;;;5.38;;
33786;SDS011;29742;51.540;9.358;2022-07-29T04:02:04;24.88;;;5.28;;
33786;SDS011;29742;51.540;9.358;2022-07-29T04:07:05;17.73;;;5.40;;
33786;SDS011;29742;51.540;9.358;2022-07-29T04:12:06;10.77;;;3.88;;
33786;SDS011;29742;51.540;9.358;2022-07-29T04:17:08;16.10;;;4.95;;
33786;SDS011;29742;51.540;9.358;2022-07-29T04:22:09;12.23;;;3.25;;
33786;SDS011;29742;51.540;9.358;2022-07-29T04:27:10;10.30;;;3.47;;
33786;SDS011;29742;51.540;9.358;2022-07-29T04:32:10;12.38;;;3.30;;
33786;SDS011;29742;51.540;9.358;2022-07-29T04:37:12;14.90;;;3.28;;
33786;SDS011;29742;51.540;9.358;2022-07-29T04:42:13;8.73;;;2.75;;
33786;SDS011;29742;51.540;9.358;2022-07-29T04:47:13;9.00;;;2.83;;
33786;SDS011;29742;51.540;9.358;2022-07-29T04:52:14;10.70;;;2.70;;
33786;SDS011;29742;51.540;9.358;2022-07-29T04:57:15;7.43;;;2.42;;
33786;SDS011;29742;51.540;9.358;2022-07-29T05:02:16;9.80;;;2.63;;
33786;SDS011;29742;51.540;9.358;2022-07-29T05:07:17;12.60;;;3.15;;
33786;SDS011;29742;51.540;9.358;2022-07-29T05:12:18;7.57;;;2.25;;
33786;SDS011;29742;51.540;9.358;2022-07-29T05:17:19;8.10;;;1.77;;
33786;SDS011;29742;51.540;9.358;2022-07-29T05:22:20;8.05;;;2.35;;
33786;SDS011;29742;51.540;9.358;2022-07-29T05:27:21;4.07;;;1.73;;
33786;SDS011;29742;51.540;9.358;2022-07-29T05:32:22;7.13;;;2.05;;
33786;SDS011;29742;51.540;9.358;2022-07-29T05:37:23;4.65;;;1.60;;
33786;SDS011;29742;51.540;9.358;2022-07-29T05:42:24;5.43;;;2.25;;
33786;SDS011;29742;51.540;9.358;2022-07-29T05:47:26;5.40;;;1.42;;
33786;SDS011;29742;51.540;9.358;2022-07-29T05:52:27;4.05;;;1.70;;
33786;SDS011;29742;51.540;9.358;2022-07-29T05:57:28;4.97;;;1.88;;
33786;SDS011;29742;51.540;9.358;2022-07-29T06:02:29;3.65;;;1.63;;
33786;SDS011;29742;51.540;9.358;2022-07-29T06:07:30;7.68;;;1.50;;
33786;SDS011;29742;51.540;9.358;2022-07-29T06:12:32;3.67;;;1.10;;
33786;SDS011;29742;51.540;9.358;2022-07-29T06:17:33;7.22;;;2.25;;
33786;SDS011;29742;51.540;9.358;2022-07-29T06:22:34;4.90;;;1.95;;
33786;SDS011;29742;51.540;9.358;2022-07-29T06:27:35;5.03;;;1.60;;
33786;SDS011;29742;51.540;9.358;2022-07-29T06:32:36;3.78;;;1.20;;
33786;SDS011;29742;51.540;9.358;2022-07-29T06:37:37;5.55;;;1.70;;
33786;SDS011;29742;51.540;9.358;2022-07-29T06:42:42;4.70;;;2.00;;
33786;SDS011;29742;51.540;9.358;2022-07-29T06:47:43;4.05;;;1.77;;
33786;SDS011;29742;51.540;9.358;2022-07-29T06:52:44;3.63;;;1.42;;
33786;SDS011;29742;51.540;9.358;2022-07-29T06:57:45;5.30;;;1.55;;
33786;SDS011;29742;51.540;9.358;2022-07-29T07:02:46;4.97;;;1.30;;
33786;SDS011;29742;51.540;9.358;2022-07-29T07:07:47;4.97;;;1.58;;
33786;SDS011;29742;51.540;9.358;2022-07-29T07:12:48;3.75;;;1.65;;
33786;SDS011;29742;51.540;9.358;2022-07-29T07:17:50;4.75;;;1.58;;
33786;SDS011;29742;51.540;9.358;2022-07-29T07:22:51;5.47;;;1.52;;
33786;SDS011;29742;51.540;9.358;2022-07-29T07:27:52;8.45;;;1.45;;
33786;SDS011;29742;51.540;9.358;2022-07-29T07:32:53;2.55;;;1.40;;
33786;SDS011;29742;51.540;9.358;2022-07-29T07:37:54;2.70;;;1.00;;
33786;SDS011;29742;51.540;9.358;2022-07-29T07:42:55;3.13;;;1.30;;
33786;SDS011;29742;51.540;9.358;2022-07-29T07:47:56;2.25;;;1.05;;
33786;SDS011;29742;51.540;9.358;2022-07-29T07:52:57;3.67;;;1.67;;
33786;SDS011;29742;51.540;9.358;2022-07-29T07:57:59;2.45;;;1.27;;
33786;SDS011;29742;51.540;9.358;2022-07-29T08:02:59;8.55;;;1.38;;
33786;SDS011;29742;51.540;9.358;2022-07-29T08:08:00;6.10;;;1.40;;
33786;SDS011;29742;51.540;9.358;2022-07-29T08:13:10;4.40;;;1.58;;
33786;SDS011;29742;51.540;9.358;2022-07-29T08:18:12;5.30;;;1.67;;
33786;SDS011;29742;51.540;9.358;2022-07-29T08:23:13;4.43;;;1.98;;
33786;SDS011;29742;51.540;9.358;2022-07-29T08:28:14;9.27;;;2.33;;
33786;SDS011;29742;51.540;9.358;2022-07-29T08:33:16;7.68;;;1.80;;
33786;SDS011;29742;51.540;9.358;2022-07-29T08:38:17;8.45;;;1.60;;
33786;SDS011;29742;51.540;9.358;2022-07-29T08:43:18;4.47;;;1.42;;
33786;SDS011;29742;51.540;9.358;2022-07-29T08:48:23;6.47;;;2.05;;
33786;SDS011;29742;51.540;9.358;2022-07-29T08:53:26;8.15;;;1.70;;
33786;SDS011;29742;51.540;9.358;2022-07-29T08:58:27;2.38;;;1.75;;
33786;SDS011;29742;51.540;9.358;2022-07-29T09:03:32;3.95;;;1.70;;
33786;SDS011;29742;51.540;9.358;2022-07-29T09:08:33;9.13;;;1.52;;
33786;SDS011;29742;51.540;9.358;2022-07-29T09:13:34;4.45;;;1.65;;
33786;SDS011;29742;51.540;9.358;2022-07-29T09:18:42;3.00;;;1.38;;
33786;SDS011;29742;51.540;9.358;2022-07-29T09:23:59;10.75;;;3.05;;
33786;SDS011;29742;51.540;9.358;2022-07-29T09:29:07;5.15;;;1.58;;
33786;SDS011;29742;51.540;9.358;2022-07-29T09:34:09;7.03;;;1.90;;
33786;SDS011;29742;51.540;9.358;2022-07-29T09:39:10;3.92;;;1.52;;
33786;SDS011;29742;51.540;9.358;2022-07-29T09:44:11;2.85;;;1.52;;
33786;SDS011;29742;51.540;9.358;2022-07-29T09:49:12;2.85;;;1.40;;
33786;SDS011;29742;51.540;9.358;2022-07-29T09:54:21;3.80;;;1.50;;
33786;SDS011;29742;51.540;9.358;2022-07-29T09:59:26;7.05;;;1.65;;
33786;SDS011;29742;51.540;9.358;2022-07-29T10:04:38;7.10;;;1.55;;
33786;SDS011;29742;51.540;9.358;2022-07-29T10:09:39;2.55;;;1.25;;
33786;SDS011;29742;51.540;9.358;2022-07-29T10:14:40;4.13;;;1.50;;
33786;SDS011;29742;51.540;9.358;2022-07-29T10:19:41;4.45;;;1.88;;
33786;SDS011;29742;51.540;9.358;2022-07-29T10:24:42;4.53;;;1.90;;
33786;SDS011;29742;51.540;9.358;2022-07-29T10:29:44;4.65;;;1.80;;
33786;SDS011;29742;51.540;9.358;2022-07-29T10:34:57;3.88;;;1.60;;
33786;SDS011;29742;51.540;9.358;2022-07-29T10:45:38;9.80;;;2.40;;
33786;SDS011;29742;51.540;9.358;2022-07-29T10:50:51;3.20;;;1.65;;
33786;SDS011;29742;51.540;9.358;2022-07-29T10:55:53;3.25;;;1.83;;
33786;SDS011;29742;51.540;9.358;2022-07-29T11:00:54;10.85;;;2.03;;
33786;SDS011;29742;51.540;9.358;2022-07-29T11:05:56;6.97;;;2.03;;
33786;SDS011;29742;51.540;9.358;2022-07-29T11:11:30;5.68;;;2.05;;
33786;SDS011;29742;51.540;9.358;2022-07-29T11:16:19;3.75;;;1.98;;
33786;SDS011;29742;51.540;9.358;2022-07-29T11:21:35;4.95;;;2.03;;
33786;SDS011;29742;51.540;9.358;2022-07-29T11:26:36;4.45;;;2.00;;
33786;SDS011;29742;51.540;9.358;2022-07-29T11:31:39;4.75;;;2.17;;
33786;SDS011;29742;51.540;9.358;2022-07-29T11:47:22;2.30;;;1.52;;
33786;SDS011;29742;51.540;9.358;2022-07-29T11:52:23;6.65;;;2.30;;
33786;SDS011;29742;51.540;9.358;2022-07-29T11:57:24;4.72;;;2.28;;
33786;SDS011;29742;51.540;9.358;2022-07-29T12:02:37;6.70;;;1.92;;
33786;SDS011;29742;51.540;9.358;2022-07-29T12:07:39;6.88;;;2.15;;
33786;SDS011;29742;51.540;9.358;2022-07-29T12:12:41;12.23;;;2.42;;
33786;SDS011;29742;51.540;9.358;2022-07-29T12:17:42;8.00;;;1.98;;
33786;SDS011;29742;51.540;9.358;2022-07-29T12:22:43;10.68;;;2.40;;
33786;SDS011;29742;51.540;9.358;2022-07-29T12:27:44;7.10;;;2.33;;
33786;SDS011;29742;51.540;9.358;2022-07-29T12:32:46;10.27;;;3.88;;
33786;SDS011;29742;51.540;9.358;2022-07-29T12:37:47;9.45;;;2.47;;
33786;SDS011;29742;51.540;9.358;2022-07-29T12:48:34;4.85;;;2.50;;
33786;SDS011;29742;51.540;9.358;2022-07-29T12:53:36;9.98;;;2.50;;
33786;SDS011;29742;51.540;9.358;2022-07-29T12:58:37;10.07;;;3.05;;
33786;SDS011;29742;51.540;9.358;2022-07-29T13:03:42;5.63;;;2.17;;
33786;SDS011;29742;51.540;9.358;2022-07-29T13:08:58;5.03;;;2.80;;
33786;SDS011;29742;51.540;9.358;2022-07-29T13:13:59;9.60;;;3.00;;
33786;SDS011;29742;51.540;9.358;2022-07-29T13:19:04;5.28;;;2.90;;
33786;SDS011;29742;51.540;9.358;2022-07-29T13:24:05;6.40;;;2.25;;
33786;SDS011;29742;51.540;9.358;2022-07-29T13:29:06;8.02;;;3.00;;
33786;SDS011;29742;51.540;9.358;2022-07-29T13:34:07;5.97;;;2.92;;
33786;SDS011;29742;51.540;9.358;2022-07-29T13:39:09;7.13;;;3.25;;
33786;SDS011;29742;51.540;9.358;2022-07-29T13:44:11;7.97;;;2.90;;
33786;SDS011;29742;51.540;9.358;2022-07-29T13:49:12;16.25;;;3.22;;
33786;SDS011;29742;51.540;9.358;2022-07-29T13:54:13;9.82;;;3.13;;
33786;SDS011;29742;51.540;9.358;2022-07-29T13:59:13;7.03;;;2.83;;
33786;SDS011;29742;51.540;9.358;2022-07-29T14:04:14;8.90;;;3.35;;
33786;SDS011;29742;51.540;9.358;2022-07-29T14:09:15;7.43;;;3.38;;
33786;SDS011;29742;51.540;9.358;2022-07-29T14:14:17;8.57;;;3.22;;
33786;SDS011;29742;51.540;9.358;2022-07-29T14:19:18;6.05;;;3.25;;
33786;SDS011;29742;51.540;9.358;2022-07-29T14:24:19;5.60;;;3.03;;
33786;SDS011;29742;51.540;9.358;2022-07-29T14:29:19;4.38;;;3.13;;
33786;SDS011;29742;51.540;9.358;2022-07-29T14:34:20;4.85;;;2.92;;
33786;SDS011;29742;51.540;9.358;2022-07-29T14:39:22;4.97;;;2.97;;
33786;SDS011;29742;51.540;9.358;2022-07-29T14:44:23;6.03;;;3.10;;
33786;SDS011;29742;51.540;9.358;2022-07-29T14:49:28;8.73;;;3.13;;
33786;SDS011;29742;51.540;9.358;2022-07-29T14:54:29;5.38;;;3.10;;
33786;SDS011;29742;51.540;9.358;2022-07-29T14:59:30;5.95;;;3.67;;
33786;SDS011;29742;51.540;9.358;2022-07-29T15:04:31;9.05;;;3.17;;
33786;SDS011;29742;51.540;9.358;2022-07-29T15:09:32;5.65;;;2.45;;
33786;SDS011;29742;51.540;9.358;2022-07-29T15:14:33;8.30;;;2.95;;
33786;SDS011;29742;51.540;9.358;2022-07-29T15:19:34;7.68;;;2.47;;
33786;SDS011;29742;51.540;9.358;2022-07-29T15:24:35;5.82;;;2.92;;
33786;SDS011;29742;51.540;9.358;2022-07-29T15:29:36;5.97;;;3.05;;
33786;SDS011;29742;51.540;9.358;2022-07-29T15:34:37;3.38;;;2.50;;
33786;SDS011;29742;51.540;9.358;2022-07-29T15:39:39;10.15;;;2.95;;
33786;SDS011;29742;51.540;9.358;2022-07-29T15:44:40;9.55;;;3.28;;
33786;SDS011;29742;51.540;9.358;2022-07-29T15:49:41;8.60;;;3.40;;
33786;SDS011;29742;51.540;9.358;2022-07-29T15:54:42;8.73;;;3.80;;
33786;SDS011;29742;51.540;9.358;2022-07-29T15:59:43;10.20;;;3.58;;
33786;SDS011;29742;51.540;9.358;2022-07-29T16:04:44;10.60;;;3.72;;
33786;SDS011;29742;51.540;9.358;2022-07-29T16:09:45;15.18;;;4.07;;
33786;SDS011;29742;51.540;9.358;2022-07-29T16:14:46;12.65;;;3.88;;
33786;SDS011;29742;51.540;9.358;2022-07-29T16:19:48;7.18;;;2.97;;
33786;SDS011;29742;51.540;9.358;2022-07-29T16:24:49;13.48;;;3.60;;
33786;SDS011;29742;51.540;9.358;2022-07-29T16:29:50;6.50;;;3.28;;
33786;SDS011;29742;51.540;9.358;2022-07-29T16:34:51;5.13;;;3.15;;
33786;SDS011;29742;51.540;9.358;2022-07-29T16:39:52;7.38;;;2.72;;
33786;SDS011;29742;51.540;9.358;2022-07-29T16:44:53;6.00;;;3.05;;
33786;SDS011;29742;51.540;9.358;2022-07-29T16:49:54;10.68;;;3.78;;
33786;SDS011;29742;51.540;9.358;2022-07-29T16:54:55;4.60;;;2.97;;
33786;SDS011;29742;51.540;9.358;2022-07-29T16:59:56;4.40;;;3.00;;
33786;SDS011;29742;51.540;9.358;2022-07-29T17:04:57;12.38;;;3.78;;
33786;SDS011;29742;51.540;9.358;2022-07-29T17:09:58;8.48;;;2.40;;
33786;SDS011;29742;51.540;9.358;2022-07-29T17:14:59;4.13;;;3.03;;
33786;SDS011;29742;51.540;9.358;2022-07-29T17:20:00;4.60;;;3.13;;
33786;SDS011;29742;51.540;9.358;2022-07-29T17:25:01;6.40;;;3.03;;
33786;SDS011;29742;51.540;9.358;2022-07-29T17:30:02;5.57;;;2.97;;
33786;SDS011;29742;51.540;9.358;2022-07-29T17:35:05;6.85;;;3.40;;
33786;SDS011;29742;51.540;9.358;2022-07-29T17:40:25;7.97;;;3.40;;
33786;SDS011;29742;51.540;9.358;2022-07-29T17:45:26;6.40;;;3.80;;
33786;SDS011;29742;51.540;9.358;2022-07-29T17:50:27;7.47;;;3.15;;
33786;SDS011;29742;51.540;9.358;2022-07-29T17:55:28;12.65;;;3.95;;
33786;SDS011;29742;51.540;9.358;2022-07-29T18:00:29;6.38;;;3.60;;
33786;SDS011;29742;51.540;9.358;2022-07-29T18:05:29;9.43;;;3.58;;
33786;SDS011;29742;51.540;9.358;2022-07-29T18:10:31;18.30;;;4.22;;
33786;SDS011;29742;51.540;9.358;2022-07-29T18:15:32;12.88;;;3.30;;
33786;SDS011;29742;51.540;9.358;2022-07-29T18:20:33;11.20;;;3.33;;
33786;SDS011;29742;51.540;9.358;2022-07-29T18:25:34;8.50;;;3.55;;
33786;SDS011;29742;51.540;9.358;2022-07-29T18:30:35;6.07;;;3.30;;
33786;SDS011;29742;51.540;9.358;2022-07-29T18:35:36;8.05;;;3.85;;
33786;SDS011;29742;51.540;9.358;2022-07-29T18:40:38;10.20;;;3.72;;
33786;SDS011;29742;51.540;9.358;2022-07-29T18:45:40;7.78;;;3.47;;
33786;SDS011;29742;51.540;9.358;2022-07-29T18:50:41;5.80;;;3.33;;
33786;SDS011;29742;51.540;9.358;2022-07-29T18:55:42;7.85;;;3.78;;
33786;SDS011;29742;51.540;9.358;2022-07-29T19:00:43;10.45;;;3.72;;
33786;SDS011;29742;51.540;9.358;2022-07-29T19:05:44;6.78;;;3.58;;
33786;SDS011;29742;51.540;9.358;2022-07-29T19:10:45;9.70;;;3.45;;
33786;SDS011;29742;51.540;9.358;2022-07-29T19:15:46;5.32;;;3.55;;
33786;SDS011;29742;51.540;9.358;2022-07-29T19:20:47;9.13;;;3.53;;
33786;SDS011;29742;51.540;9.358;2022-07-29T19:25:48;4.53;;;2.70;;
33786;SDS011;29742;51.540;9.358;2022-07-29T19:30:49;5.45;;;3.40;;
33786;SDS011;29742;51.540;9.358;2022-07-29T19:35:50;7.10;;;3.58;;
33786;SDS011;29742;51.540;9.358;2022-07-29T19:40:51;12.00;;;4.03;;
33786;SDS011;29742;51.540;9.358;2022-07-29T19:45:52;6.32;;;3.20;;
33786;SDS011;29742;51.540;9.358;2022-07-29T19:50:53;6.30;;;3.08;;
33786;SDS011;29742;51.540;9.358;2022-07-29T19:55:54;6.80;;;3.67;;
33786;SDS011;29742;51.540;9.358;2022-07-29T20:00:55;8.68;;;3.10;;
33786;SDS011;29742;51.540;9.358;2022-07-29T20:05:56;5.13;;;3.35;;
33786;SDS011;29742;51.540;9.358;2022-07-29T20:10:58;8.40;;;3.97;;
33786;SDS011;29742;51.540;9.358;2022-07-29T20:16:00;6.53;;;3.40;;
33786;SDS011;29742;51.540;9.358;2022-07-29T20:21:01;7.60;;;3.55;;
33786;SDS011;29742;51.540;9.358;2022-07-29T20:26:02;13.40;;;3.53;;
33786;SDS011;29742;51.540;9.358;2022-07-29T20:31:04;13.10;;;4.03;;
33786;SDS011;29742;51.540;9.358;2022-07-29T20:36:05;3.83;;;3.05;;
33786;SDS011;29742;51.540;9.358;2022-07-29T20:41:06;9.10;;;3.63;;
33786;SDS011;29742;51.540;9.358;2022-07-29T20:46:07;8.32;;;3.75;;
33786;SDS011;29742;51.540;9.358;2022-07-29T20:51:08;10.23;;;4.30;;
33786;SDS011;29742;51.540;9.358;2022-07-29T20:56:09;4.95;;;3.58;;
33786;SDS011;29742;51.540;9.358;2022-07-29T21:01:13;8.52;;;3.63;;
33786;SDS011;29742;51.540;9.358;2022-07-29T21:06:14;6.40;;;3.60;;
33786;SDS011;29742;51.540;9.358;2022-07-29T21:11:15;6.50;;;2.88;;
33786;SDS011;29742;51.540;9.358;2022-07-29T21:16:16;8.45;;;3.78;;
33786;SDS011;29742;51.540;9.358;2022-07-29T21:21:18;5.85;;;3.33;;
33786;SDS011;29742;51.540;9.358;2022-07-29T21:26:19;4.88;;;3.22;;
33786;SDS011;29742;51.540;9.358;2022-07-29T21:31:20;5.00;;;2.65;;
33786;SDS011;29742;51.540;9.358;2022-07-29T21:36:21;5.30;;;3.00;;
33786;SDS011;29742;51.540;9.358;2022-07-29T21:41:22;11.77;;;4.80;;
33786;SDS011;29742;51.540;9.358;2022-07-29T21:46:23;6.90;;;4.28;;
33786;SDS011;29742;51.540;9.358;2022-07-29T21:51:24;8.35;;;4.03;;
33786;SDS011;29742;51.540;9.358;2022-07-29T21:56:25;9.43;;;4.30;;
33786;SDS011;29742;51.540;9.358;2022-07-29T22:01:26;6.95;;;3.90;;
33786;SDS011;29742;51.540;9.358;2022-07-29T22:06:27;7.38;;;4.03;;
33786;SDS011;29742;51.540;9.358;2022-07-29T22:11:28;7.22;;;4.45;;
33786;SDS011;29742;51.540;9.358;2022-07-29T22:16:29;9.13;;;4.50;;
33786;SDS011;29742;51.540;9.358;2022-07-29T22:21:30;7.05;;;4.07;;
33786;SDS011;29742;51.540;9.358;2022-07-29T22:26:31;10.98;;;4.85;;
33786;SDS011;29742;51.540;9.358;2022-07-29T22:31:32;8.45;;;4.63;;
33786;SDS011;29742;51.540;9.358;2022-07-29T22:36:33;9.50;;;4.95;;
33786;SDS011;29742;51.540;9.358;2022-07-29T22:41:34;8.57;;;4.63;;
33786;SDS011;29742;51.540;9.358;2022-07-29T22:46:35;6.18;;;4.35;;
33786;SDS011;29742;51.540;9.358;2022-07-29T22:51:36;13.82;;;4.75;;
33786;SDS011;29742;51.540;9.358;2022-07-29T22:56:37;9.00;;;4.30;;
33786;SDS011;29742;51.540;9.358;2022-07-29T23:01:38;11.70;;;4.53;;
33786;SDS011;29742;51.540;9.358;2022-07-29T23:06:39;9.50;;;4.50;;
33786;SDS011;29742;51.540;9.358;2022-07-29T23:11:40;6.80;;;3.75;;
33786;SDS011;29742;51.540;9.358;2022-07-29T23:16:41;10.70;;;4.20;;
33786;SDS011;29742;51.540;9.358;2022-07-29T23:21:42;7.75;;;3.90;;
33786;SDS011;29742;51.540;9.358;2022-07-29T23:26:43;7.47;;;4.40;;
33786;SDS011;29742;51.540;9.358;2022-07-29T23:31:44;7.68;;;4.53;;
33786;SDS011;29742;51.540;9.358;2022-07-29T23:36:45;8.82;;;4.68;;
33786;SDS011;29742;51.540;9.358;2022-07-29T23:41:46;7.90;;;5.38;;
33786;SDS011;29742;51.540;9.358;2022-07-29T23:46:47;7.72;;;4.70;;
33786;SDS011;29742;51.540;9.358;2022-07-29T23:51:48;7.35;;;4.88;;
33786;SDS011;29742;51.540;9.358;2022-07-29T23:56:49;10.20;;;4.82;;
